createdAt,value
2017-06-13T00:00:48.932Z,6.27
2017-06-13T00:03:17.758Z,4.10
2017-06-13T00:05:46.884Z,6.80
2017-06-13T00:08:15.278Z,6.60
2017-06-13T00:10:43.815Z,19.43
2017-06-13T00:13:12.206Z,4.97
2017-06-13T00:15:40.589Z,8.80
2017-06-13T00:18:09.009Z,8.20
2017-06-13T00:20:37.387Z,4.40
2017-06-13T00:23:05.787Z,7.03
2017-06-13T00:25:34.488Z,6.27
2017-06-13T00:28:02.891Z,8.23
2017-06-13T00:30:31.280Z,7.13
2017-06-13T00:32:59.692Z,7.50
2017-06-13T00:35:28.068Z,9.53
2017-06-13T00:37:56.445Z,8.63
2017-06-13T00:40:25.669Z,5.90
2017-06-13T00:42:54.174Z,15.30
2017-06-13T00:45:22.556Z,11.33
2017-06-13T00:47:51.115Z,15.73
2017-06-13T00:50:20.282Z,4.40
2017-06-13T00:52:48.676Z,14.30
2017-06-13T00:55:17.075Z,15.80
2017-06-13T00:57:46.225Z,7.13
2017-06-13T01:00:14.614Z,7.47
2017-06-13T01:02:43.096Z,13.60
2017-06-13T01:05:11.473Z,13.13
2017-06-13T01:07:39.864Z,6.77
2017-06-13T01:10:08.401Z,11.57
2017-06-13T01:12:36.777Z,8.10
2017-06-13T01:15:05.295Z,7.90
2017-06-13T01:17:33.733Z,11.00
2017-06-13T01:20:02.370Z,11.97
2017-06-13T01:22:30.956Z,10.83
2017-06-13T01:24:59.385Z,12.57
2017-06-13T01:27:27.860Z,11.53
2017-06-13T01:29:57.021Z,9.30
2017-06-13T01:32:25.634Z,7.80
2017-06-13T01:34:54.020Z,8.50
2017-06-13T01:37:22.414Z,10.93
2017-06-13T01:39:50.880Z,5.43
2017-06-13T01:42:19.267Z,6.20
2017-06-13T01:44:47.742Z,11.13
2017-06-13T01:47:16.416Z,8.43
2017-06-13T01:49:45.586Z,11.93
2017-06-13T01:52:13.972Z,11.10
2017-06-13T01:54:42.695Z,12.00
2017-06-13T01:57:11.089Z,9.10
2017-06-13T01:59:39.498Z,10.03
2017-06-13T02:02:08.024Z,16.97
2017-06-13T02:04:36.420Z,4.83
2017-06-13T02:07:04.803Z,12.63
2017-06-13T02:09:33.269Z,9.93
2017-06-13T02:12:02.396Z,8.63
2017-06-13T02:14:30.790Z,12.87
2017-06-13T02:16:59.222Z,8.07
2017-06-13T02:19:27.602Z,7.27
2017-06-13T02:21:56.736Z,11.43
2017-06-13T02:24:25.336Z,9.80
2017-06-13T02:26:53.716Z,7.03
2017-06-13T02:29:22.092Z,12.23
2017-06-13T02:31:50.829Z,10.70
2017-06-13T02:34:19.308Z,9.30
2017-06-13T02:36:47.686Z,11.13
2017-06-13T02:39:17.090Z,13.80
2017-06-13T02:41:46.320Z,7.17
2017-06-13T02:44:14.706Z,14.37
2017-06-13T02:46:43.149Z,9.73
2017-06-13T02:49:12.255Z,8.17
2017-06-13T02:51:40.654Z,9.57
2017-06-13T02:54:09.317Z,7.03
2017-06-13T02:56:37.681Z,9.70
2017-06-13T02:59:06.816Z,6.40
2017-06-13T03:01:35.239Z,9.03
2017-06-13T03:04:04.395Z,7.10
2017-06-13T03:06:32.778Z,10.70
2017-06-13T03:09:01.525Z,7.37
2017-06-13T03:11:30.656Z,8.07
2017-06-13T03:13:59.032Z,6.73
2017-06-13T03:16:27.681Z,7.83
2017-06-13T03:18:56.166Z,8.27
2017-06-13T03:21:24.570Z,8.10
2017-06-13T03:23:53.132Z,7.23
2017-06-13T03:26:21.553Z,10.93
2017-06-13T03:28:49.941Z,9.07
2017-06-13T03:31:18.487Z,9.53
2017-06-13T03:33:47.002Z,9.40
2017-06-13T03:36:15.399Z,9.87
2017-06-13T03:38:44.826Z,6.27
2017-06-13T03:41:13.193Z,9.43
2017-06-13T03:43:42.360Z,9.33
2017-06-13T03:46:10.791Z,12.43
2017-06-13T03:48:39.164Z,13.90
2017-06-13T03:51:07.550Z,11.30
2017-06-13T03:53:36.130Z,11.40
2017-06-13T03:56:05.079Z,11.57
2017-06-13T03:58:33.457Z,9.20
2017-06-13T04:01:01.884Z,12.30
2017-06-13T04:03:31.124Z,7.73
2017-06-13T04:05:59.515Z,13.37
2017-06-13T04:08:28.230Z,8.80
2017-06-13T04:10:56.679Z,8.43
2017-06-13T04:13:25.053Z,10.23
2017-06-13T04:15:59.494Z,7.47
2017-06-13T04:18:27.872Z,10.20
2017-06-13T04:20:56.284Z,11.93
2017-06-13T04:23:24.965Z,17.30
2017-06-13T04:25:53.462Z,7.53
2017-06-13T04:28:21.860Z,11.23
2017-06-13T04:30:50.336Z,7.47
2017-06-13T04:33:18.729Z,16.67
2017-06-13T04:35:47.171Z,9.50
2017-06-13T04:38:16.588Z,8.43
2017-06-13T04:40:44.976Z,14.70
2017-06-13T04:43:13.657Z,14.37
2017-06-13T04:45:42.153Z,8.83
2017-06-13T04:48:10.508Z,13.17
2017-06-13T04:50:38.914Z,9.57
2017-06-13T04:53:07.668Z,10.80
2017-06-13T04:55:36.067Z,8.20
2017-06-13T04:58:04.514Z,6.73
2017-06-13T05:00:33.780Z,10.73
2017-06-13T05:03:02.279Z,11.63
2017-06-13T05:05:30.690Z,16.03
2017-06-13T05:07:59.400Z,16.13
2017-06-13T05:10:27.820Z,12.10
2017-06-13T05:12:56.251Z,11.20
2017-06-13T05:15:24.678Z,12.07
2017-06-13T05:17:53.861Z,12.70
2017-06-13T05:20:22.247Z,13.80
2017-06-13T05:22:50.828Z,16.50
2017-06-13T05:25:19.213Z,10.83
2017-06-13T05:27:47.631Z,10.20
2017-06-13T05:30:16.113Z,12.90
2017-06-13T05:32:45.246Z,12.13
2017-06-13T05:35:13.653Z,13.43
2017-06-13T05:37:42.271Z,17.03
2017-06-13T05:40:10.672Z,13.83
2017-06-13T05:42:39.053Z,14.47
2017-06-13T05:45:07.488Z,11.40
2017-06-13T05:47:35.999Z,9.00
2017-06-13T05:50:05.761Z,10.33
2017-06-13T05:52:34.876Z,17.57
2017-06-13T05:55:04.028Z,10.00
2017-06-13T05:57:32.477Z,15.23
2017-06-13T06:00:01.630Z,14.80
2017-06-13T06:02:30.020Z,16.67
2017-06-13T06:04:58.393Z,16.37
2017-06-13T06:07:27.015Z,12.83
2017-06-13T06:09:55.417Z,15.13
2017-06-13T06:12:24.951Z,16.40
2017-06-13T06:14:53.386Z,13.73
2017-06-13T06:17:21.965Z,16.03
2017-06-13T06:19:51.133Z,24.30
2017-06-13T06:22:19.564Z,10.87
2017-06-13T06:24:48.027Z,13.13
2017-06-13T06:27:16.444Z,18.47
2017-06-13T06:29:45.100Z,15.73
2017-06-13T06:32:13.474Z,13.07
2017-06-13T06:34:41.858Z,17.63
2017-06-13T06:37:10.390Z,16.87
2017-06-13T06:39:38.776Z,14.70
2017-06-13T06:42:07.153Z,13.57
2017-06-13T06:44:36.433Z,21.63
2017-06-13T06:47:04.872Z,16.60
2017-06-13T06:49:34.016Z,21.23
2017-06-13T06:52:02.456Z,15.10
2017-06-13T06:54:30.843Z,21.97
2017-06-13T06:56:59.288Z,15.53
2017-06-13T06:59:27.741Z,20.47
2017-06-13T07:01:56.163Z,15.57
2017-06-13T07:04:24.565Z,14.27
2017-06-13T07:06:53.244Z,16.50
2017-06-13T07:12:00.053Z,16.07
2017-06-13T07:14:28.456Z,15.97
2017-06-13T07:16:56.873Z,20.77
2017-06-13T07:19:25.307Z,18.27
2017-06-13T07:21:53.719Z,19.77
2017-06-13T07:24:22.872Z,13.40
2017-06-13T07:26:51.534Z,20.10
2017-06-13T07:29:19.925Z,18.97
2017-06-13T07:31:48.324Z,13.13
2017-06-13T07:34:16.877Z,14.93
2017-06-13T07:36:45.284Z,13.70
2017-06-13T07:39:13.756Z,21.87
2017-06-13T07:41:42.216Z,13.33
2017-06-13T07:44:10.607Z,16.37
2017-06-13T07:46:39.019Z,28.13
2017-06-13T07:49:07.597Z,14.90
2017-06-13T07:51:36.017Z,13.37
2017-06-13T07:54:04.429Z,15.23
2017-06-13T07:56:32.966Z,16.50
2017-06-13T07:59:01.354Z,15.27
2017-06-13T08:01:29.783Z,16.67
2017-06-13T08:03:58.545Z,14.03
2017-06-13T08:06:26.965Z,16.80
2017-06-13T08:08:56.828Z,11.80
2017-06-13T08:11:25.302Z,16.27
2017-06-13T08:13:54.452Z,14.03
2017-06-13T08:16:22.890Z,12.70
2017-06-13T08:18:51.380Z,13.67
2017-06-13T08:21:19.906Z,19.87
2017-06-13T08:23:48.353Z,13.67
2017-06-13T08:26:16.794Z,14.47
2017-06-13T08:28:45.959Z,12.43
2017-06-13T08:31:14.362Z,15.93
2017-06-13T08:33:42.815Z,10.93
2017-06-13T08:36:11.214Z,9.10
2017-06-13T08:38:39.617Z,12.33
2017-06-13T08:41:08.024Z,9.40
2017-06-13T08:43:36.490Z,13.53
2017-06-13T08:46:04.897Z,19.30
2017-06-13T08:48:33.659Z,11.70
2017-06-13T08:51:02.081Z,14.27
2017-06-13T08:53:30.496Z,11.77
2017-06-13T08:55:58.960Z,12.27
2017-06-13T08:58:27.398Z,12.83
2017-06-13T09:00:55.939Z,12.90
2017-06-13T09:03:25.466Z,12.60
2017-06-13T09:05:53.859Z,12.93
2017-06-13T09:08:22.252Z,11.07
2017-06-13T09:10:50.718Z,10.53
2017-06-13T09:13:19.115Z,21.53
2017-06-13T09:15:47.559Z,20.23
2017-06-13T09:18:16.065Z,10.70
2017-06-13T09:20:44.459Z,11.40
2017-06-13T09:23:12.901Z,16.93
2017-06-13T09:25:41.331Z,8.57
2017-06-13T09:28:09.721Z,10.17
2017-06-13T09:30:38.109Z,15.73
2017-06-13T09:33:07.340Z,9.37
2017-06-13T09:35:35.726Z,10.00
2017-06-13T09:38:04.649Z,10.10
2017-06-13T09:40:33.096Z,8.50
2017-06-13T09:43:02.518Z,8.73
2017-06-13T09:45:30.928Z,14.77
2017-06-13T09:47:59.396Z,19.60
2017-06-13T09:50:27.748Z,8.50
2017-06-13T09:52:56.168Z,12.40
2017-06-13T09:55:24.785Z,16.03
2017-06-13T09:57:53.181Z,13.50
2017-06-13T10:00:21.572Z,7.27
2017-06-13T10:02:50.070Z,8.47
2017-06-13T10:05:18.615Z,12.90
2017-06-13T10:07:47.016Z,7.60
2017-06-13T10:10:15.456Z,9.03
2017-06-13T10:12:43.883Z,6.53
2017-06-13T10:15:12.264Z,10.00
2017-06-13T10:17:40.781Z,6.57
2017-06-13T10:20:09.150Z,7.63
2017-06-13T10:22:37.577Z,7.17
2017-06-13T10:25:06.119Z,8.30
2017-06-13T10:27:35.361Z,8.10
2017-06-13T10:30:03.749Z,8.83
2017-06-13T10:32:32.543Z,8.87
2017-06-13T10:35:01.006Z,9.13
2017-06-13T10:37:29.485Z,8.20
2017-06-13T10:39:58.162Z,8.30
2017-06-13T10:42:27.514Z,6.37
2017-06-13T10:44:55.906Z,20.93
2017-06-13T10:47:24.440Z,6.20
2017-06-13T10:49:53.577Z,10.23
2017-06-13T10:52:21.989Z,7.30
2017-06-13T10:54:51.167Z,8.90
2017-06-13T10:57:19.712Z,13.27
2017-06-13T10:59:48.121Z,12.87
2017-06-13T11:02:17.617Z,10.30
2017-06-13T11:04:46.023Z,8.97
2017-06-13T11:07:14.417Z,6.03
2017-06-13T11:09:43.097Z,10.13
2017-06-13T11:12:11.521Z,8.53
2017-06-13T11:14:39.914Z,6.07
2017-06-13T11:17:08.367Z,11.90
2017-06-13T11:19:36.749Z,10.53
2017-06-13T11:22:05.148Z,4.13
2017-06-13T11:24:33.597Z,6.93
2017-06-13T11:27:02.761Z,12.20
2017-06-13T11:29:31.180Z,26.80
2017-06-13T11:31:59.619Z,5.63
2017-06-13T11:34:28.797Z,6.13
2017-06-13T11:36:57.243Z,6.10
2017-06-13T11:39:26.975Z,6.23
2017-06-13T11:41:55.376Z,7.60
2017-06-13T11:44:23.908Z,5.70
2017-06-13T11:46:53.104Z,6.70
2017-06-13T11:49:21.523Z,13.93
2017-06-13T11:51:49.922Z,10.30
2017-06-13T11:54:18.356Z,7.37
2017-06-13T11:56:46.827Z,6.97
2017-06-13T11:59:15.232Z,6.03
2017-06-13T12:01:43.701Z,7.00
2017-06-13T12:04:12.210Z,7.20
2017-06-13T12:06:40.798Z,7.13
2017-06-13T12:09:09.265Z,5.60
2017-06-13T12:11:37.672Z,3.83
2017-06-13T12:14:06.091Z,6.63
2017-06-13T12:16:34.792Z,7.23
2017-06-13T12:19:04.086Z,4.40
2017-06-13T12:21:32.487Z,5.03
2017-06-13T12:24:01.002Z,4.73
2017-06-13T12:26:30.185Z,13.50
2017-06-13T12:28:58.613Z,4.60
2017-06-13T12:31:27.314Z,10.97
2017-06-13T12:33:55.744Z,2.90
2017-06-13T12:36:24.154Z,4.00
2017-06-13T12:38:52.701Z,6.63
2017-06-13T12:41:21.136Z,6.73
2017-06-13T12:43:50.269Z,6.80
2017-06-13T12:46:19.501Z,7.40
2017-06-13T12:48:47.964Z,4.90
2017-06-13T12:51:16.557Z,11.93
2017-06-13T12:53:45.177Z,6.70
2017-06-13T12:56:13.618Z,5.57
2017-06-13T12:58:42.064Z,6.33
2017-06-13T13:01:10.484Z,8.10
2017-06-13T13:03:38.887Z,8.23
2017-06-13T13:06:08.276Z,5.20
2017-06-13T13:08:36.727Z,3.50
2017-06-13T13:11:05.272Z,7.23
2017-06-13T13:13:33.687Z,6.20
2017-06-13T13:16:02.165Z,9.70
2017-06-13T13:18:30.557Z,6.40
2017-06-13T13:20:59.026Z,5.60
2017-06-13T13:23:27.453Z,6.07
2017-06-13T13:25:56.608Z,5.57
2017-06-13T13:28:25.090Z,10.63
2017-06-13T13:30:53.502Z,6.40
2017-06-13T13:33:22.669Z,4.87
2017-06-13T13:35:51.138Z,13.20
2017-06-13T13:38:19.570Z,7.93
2017-06-13T13:40:48.027Z,6.93
2017-06-13T13:43:16.451Z,6.13
2017-06-13T13:45:44.944Z,8.00
2017-06-13T13:48:13.404Z,7.47
2017-06-13T13:50:41.847Z,7.60
2017-06-13T13:53:10.259Z,7.00
2017-06-13T13:55:38.701Z,5.00
2017-06-13T13:58:07.154Z,5.03
2017-06-13T14:00:35.715Z,7.77
2017-06-13T14:03:04.276Z,5.93
2017-06-13T14:05:33.014Z,5.60
2017-06-13T14:08:01.512Z,9.27
2017-06-13T14:10:30.734Z,8.23
2017-06-13T14:12:59.172Z,14.57
2017-06-13T14:15:27.631Z,5.77
2017-06-13T14:17:56.075Z,4.93
2017-06-13T14:20:24.523Z,8.10
2017-06-13T14:22:53.475Z,6.43
2017-06-13T14:25:21.946Z,5.53
2017-06-13T14:27:50.528Z,6.03
2017-06-13T14:30:18.909Z,4.53
2017-06-13T14:32:47.359Z,8.90
2017-06-13T14:35:15.804Z,5.10
2017-06-13T14:37:44.256Z,5.67
2017-06-13T14:40:12.728Z,5.40
2017-06-13T14:42:41.194Z,8.40
2017-06-13T14:45:09.661Z,5.60
2017-06-13T14:47:38.971Z,7.90
2017-06-13T14:50:07.368Z,6.10
2017-06-13T14:52:35.846Z,13.80
2017-06-13T14:55:04.303Z,8.30
2017-06-13T15:00:33.760Z,7.13
2017-06-13T15:03:02.450Z,7.40
2017-06-13T15:05:30.886Z,6.93
2017-06-13T15:08:00.115Z,5.90
2017-06-13T15:10:30.334Z,8.33
2017-06-13T15:12:58.767Z,5.50
2017-06-13T15:15:27.230Z,11.60
2017-06-13T15:17:55.661Z,6.00
2017-06-13T15:20:24.076Z,5.63
2017-06-13T15:22:52.589Z,7.07
2017-06-13T15:25:21.167Z,6.70
2017-06-13T15:27:49.628Z,9.17
2017-06-13T15:30:18.105Z,7.97
2017-06-13T15:32:46.559Z,6.80
2017-06-13T15:35:15.017Z,7.37
2017-06-13T15:37:43.440Z,5.97
2017-06-13T15:40:12.217Z,6.67
2017-06-13T15:42:40.618Z,5.67
2017-06-13T15:45:09.012Z,6.77
2017-06-13T15:47:37.670Z,6.27
2017-06-13T15:50:06.324Z,7.40
2017-06-13T15:52:35.508Z,8.70
2017-06-13T15:55:04.992Z,7.07
2017-06-13T15:57:33.431Z,5.53
2017-06-13T16:00:01.859Z,5.93
2017-06-13T16:02:30.344Z,5.10
2017-06-13T16:04:58.768Z,6.47
2017-06-13T16:07:27.254Z,5.70
2017-06-13T16:09:55.675Z,8.10
2017-06-13T16:12:24.531Z,7.37
2017-06-13T16:14:55.474Z,19.13
2017-06-13T16:17:24.625Z,14.30
2017-06-13T16:19:53.032Z,11.50
2017-06-13T16:22:21.545Z,7.83
2017-06-13T16:24:50.003Z,8.50
2017-06-13T16:27:18.422Z,7.80
2017-06-13T16:29:46.914Z,8.63
2017-06-13T16:32:15.448Z,8.23
2017-06-13T16:34:43.873Z,6.63
2017-06-13T16:37:12.350Z,7.80
2017-06-13T16:39:40.774Z,5.30
2017-06-13T16:42:09.418Z,6.00
2017-06-13T16:44:37.895Z,4.60
2017-06-13T16:47:06.345Z,5.77
2017-06-13T16:49:34.843Z,5.20
2017-06-13T16:52:03.349Z,5.00
2017-06-13T16:54:31.775Z,5.47
2017-06-13T16:57:00.272Z,5.93
2017-06-13T16:59:28.762Z,6.83
2017-06-13T17:01:57.242Z,6.10
2017-06-13T17:04:25.754Z,5.20
2017-06-13T17:06:55.067Z,8.10
2017-06-13T17:09:24.745Z,6.10
2017-06-13T17:11:53.212Z,4.43
2017-06-13T17:14:21.668Z,6.93
2017-06-13T17:16:50.990Z,4.57
2017-06-13T17:19:19.419Z,3.53
2017-06-13T17:21:48.049Z,4.70
2017-06-13T17:24:16.608Z,3.70
2017-06-13T17:26:45.159Z,4.67
2017-06-13T17:29:13.680Z,3.63
2017-06-13T17:31:42.495Z,4.60
2017-06-13T17:34:10.973Z,6.23
2017-06-13T17:36:39.698Z,6.33
2017-06-13T17:39:08.314Z,4.50
2017-06-13T17:41:36.825Z,6.57
2017-06-13T17:44:05.372Z,4.70
2017-06-13T17:46:34.080Z,5.80
2017-06-13T17:49:02.774Z,2.97
2017-06-13T17:51:31.255Z,4.77
2017-06-13T17:54:00.688Z,5.13
2017-06-13T17:56:29.939Z,6.33
2017-06-13T17:58:58.381Z,3.87
2017-06-13T18:01:28.067Z,3.53
2017-06-13T18:03:56.650Z,3.40
2017-06-13T18:06:25.191Z,3.50
2017-06-13T18:08:54.399Z,4.90
2017-06-13T18:11:22.869Z,5.40
2017-06-13T18:13:56.331Z,6.37
2017-06-13T18:16:25.153Z,4.30
2017-06-13T18:18:53.757Z,5.23
2017-06-13T18:21:23.513Z,3.57
2017-06-13T18:23:52.789Z,3.40
2017-06-13T18:26:21.279Z,4.27
2017-06-13T18:28:49.844Z,4.93
2017-06-13T18:31:18.335Z,4.80
2017-06-13T18:33:46.767Z,7.50
2017-06-13T18:36:16.341Z,7.57
2017-06-13T18:38:44.892Z,6.90
2017-06-13T18:41:13.473Z,4.63
2017-06-13T18:43:42.351Z,5.13
2017-06-13T18:46:11.047Z,4.63
2017-06-13T18:48:39.572Z,3.50
2017-06-13T18:51:08.319Z,5.90
2017-06-13T18:53:36.762Z,7.17
2017-06-13T18:56:05.190Z,10.10
2017-06-13T18:58:34.477Z,4.00
2017-06-13T19:01:03.004Z,3.73
2017-06-13T19:03:31.516Z,4.00
2017-06-13T19:06:00.768Z,6.23
2017-06-13T19:08:29.184Z,3.30
2017-06-13T19:10:58.389Z,4.63
2017-06-13T19:13:26.892Z,3.77
2017-06-13T19:15:57.362Z,4.90
2017-06-13T19:18:25.898Z,3.47
2017-06-13T19:20:54.506Z,6.30
2017-06-13T19:23:23.274Z,5.13
2017-06-13T19:25:51.715Z,8.80
2017-06-13T19:28:20.344Z,3.53
2017-06-13T19:30:49.714Z,5.00
2017-06-13T19:33:18.425Z,5.13
2017-06-13T19:35:47.417Z,3.50
2017-06-13T19:38:17.029Z,5.50
2017-06-13T19:40:45.557Z,5.90
2017-06-13T19:43:13.963Z,5.67
2017-06-13T19:45:43.308Z,3.50
2017-06-13T19:48:11.750Z,6.30
2017-06-13T19:50:40.564Z,5.43
2017-06-13T19:53:09.498Z,3.13
2017-06-13T19:55:37.954Z,5.90
2017-06-13T19:58:06.466Z,7.00
2017-06-13T20:00:35.915Z,3.77
2017-06-13T20:03:04.433Z,4.97
2017-06-13T20:05:32.838Z,6.10
2017-06-13T20:08:01.383Z,4.60
2017-06-13T20:10:30.687Z,3.00
2017-06-13T20:12:59.202Z,3.93
2017-06-13T20:15:28.703Z,5.53
2017-06-13T20:17:57.376Z,4.97
2017-06-13T20:20:26.827Z,5.73
2017-06-13T20:23:00.946Z,5.87
2017-06-13T20:25:30.163Z,7.03
2017-06-13T20:27:58.638Z,3.03
2017-06-13T20:30:32.802Z,4.70
2017-06-13T20:33:01.293Z,9.67
2017-06-13T20:35:31.550Z,3.50
2017-06-13T20:38:00.040Z,4.13
2017-06-13T20:40:28.519Z,4.70
2017-06-13T20:42:56.945Z,2.93
2017-06-13T20:45:25.585Z,4.03
2017-06-13T20:47:54.058Z,3.30
2017-06-13T20:50:22.620Z,5.10
2017-06-13T20:52:52.141Z,3.40
2017-06-13T20:55:20.745Z,10.73
2017-06-13T20:57:49.254Z,3.17
2017-06-13T21:00:18.534Z,5.70
2017-06-13T21:02:47.140Z,3.03
2017-06-13T21:05:15.796Z,3.83
2017-06-13T21:07:44.313Z,5.10
2017-06-13T21:10:12.756Z,3.97
2017-06-13T21:12:41.278Z,4.13
2017-06-13T21:15:09.766Z,4.83
2017-06-13T21:17:38.941Z,3.47
2017-06-13T21:20:07.723Z,3.63
2017-06-13T21:22:36.136Z,3.87
2017-06-13T21:25:05.371Z,5.77
2017-06-13T21:27:33.882Z,7.80
2017-06-13T21:30:02.439Z,3.70
2017-06-13T21:32:32.464Z,4.83
2017-06-13T21:35:03.541Z,4.90
2017-06-13T21:37:32.006Z,3.53
2017-06-13T21:40:00.401Z,3.67
2017-06-13T21:42:29.165Z,2.80
2017-06-13T21:44:57.592Z,3.53
2017-06-13T21:47:25.994Z,7.20
2017-06-13T21:49:54.614Z,3.30
2017-06-13T21:52:23.063Z,3.90
2017-06-13T21:54:51.526Z,4.70
2017-06-13T21:57:20.725Z,3.40
2017-06-13T21:59:49.137Z,4.03
2017-06-13T22:02:17.652Z,3.10
2017-06-13T22:04:46.264Z,3.93
2017-06-13T22:07:14.648Z,7.30
2017-06-13T22:09:43.059Z,3.40
2017-06-13T22:12:11.518Z,4.73
2017-06-13T22:14:40.713Z,3.50
2017-06-13T22:17:09.130Z,3.77
2017-06-13T22:19:37.563Z,3.03
2017-06-13T22:22:06.743Z,5.40
2017-06-13T22:24:35.269Z,3.63
2017-06-13T22:27:03.998Z,4.00
2017-06-13T22:29:32.396Z,3.50
2017-06-13T22:32:00.794Z,3.60
2017-06-13T22:34:29.200Z,4.03
2017-06-13T22:36:58.486Z,3.13
2017-06-13T22:39:26.848Z,4.80
2017-06-13T22:41:55.279Z,7.33
2017-06-13T22:44:23.711Z,3.83
2017-06-13T22:46:52.330Z,3.20
2017-06-13T22:49:22.612Z,6.10
2017-06-13T22:51:50.992Z,3.53
2017-06-13T22:54:19.386Z,3.13
2017-06-13T22:56:47.792Z,4.00
2017-06-13T22:59:16.176Z,4.93
2017-06-13T23:01:45.335Z,4.57
2017-06-13T23:04:13.997Z,3.30
2017-06-13T23:06:42.408Z,3.20
2017-06-13T23:09:10.832Z,3.37
2017-06-13T23:11:39.313Z,3.53
2017-06-13T23:14:07.857Z,4.30
2017-06-13T23:16:36.260Z,5.37
2017-06-13T23:19:04.876Z,5.70
2017-06-13T23:21:33.294Z,3.50
2017-06-13T23:24:01.693Z,2.50
2017-06-13T23:26:30.123Z,2.90
2017-06-13T23:28:58.510Z,4.50
2017-06-13T23:31:27.018Z,3.60
2017-06-13T23:33:55.677Z,5.13
2017-06-13T23:36:24.238Z,5.10
2017-06-13T23:38:53.392Z,3.90
2017-06-13T23:41:21.922Z,3.30
2017-06-13T23:43:51.072Z,3.37
2017-06-13T23:46:19.500Z,2.93
2017-06-13T23:48:47.979Z,3.37
2017-06-13T23:51:16.374Z,3.17
2017-06-13T23:53:44.763Z,4.30
2017-06-13T23:56:13.162Z,3.07
2017-06-13T23:58:41.562Z,6.60
